Time;durP1;ratioP1;P1;durP2;ratioP2;P2;SDS_P1;SDS_P2;PMS_P1;PMS_P2;Temp;Humidity;BMP_temperature;BMP_pressure;BME280_temperature;BME280_humidity;BME280_pressure;Samples;Min_cycle;Max_cycle;Signal;HPM_P1;HPM_P2
2022/06/23 00:01:13;;;;;;;;;;;21.40;59.80;;;;;;5062070;28;19912;-74
2022/06/23 00:03:39;;;;;;;;;;;21.30;59.70;;;;;;5057075;28;19948;-74
2022/06/23 00:06:06;;;;;;;;;;;21.30;59.80;;;;;;5067675;28;19963;-74
2022/06/23 00:08:41;;;;;;;;;;;21.20;59.80;;;;;;5062945;28;20004;-74
2022/06/23 00:11:18;;;;;;;;;;;21.20;60.00;;;;;;5062487;28;20093;-74
2022/06/23 00:13:43;;;;;;;;;;;21.20;60.00;;;;;;5063699;28;19916;-74
2022/06/23 00:16:15;;;;;;;;;;;21.20;59.90;;;;;;5057356;28;19912;-74
2022/06/23 00:18:41;;;;;;;;;;;21.10;60.00;;;;;;5049927;28;19917;-74
2022/06/23 00:21:15;;;;;;;;;;;21.10;60.00;;;;;;5056495;28;19940;-74
2022/06/23 00:23:44;;;;;;;;;;;21.10;60.00;;;;;;5057270;28;20604;-74
2022/06/23 00:26:12;;;;;;;;;;;21.00;60.10;;;;;;5056576;28;19966;-74
2022/06/23 00:28:45;;;;;;;;;;;21.00;60.30;;;;;;5062306;28;20031;-74
2022/06/23 00:31:29;;;;;;;;;;;20.90;60.10;;;;;;5054714;28;19912;-74
2022/06/23 00:33:55;;;;;;;;;;;20.90;60.10;;;;;;5053125;28;19915;-77
2022/06/23 00:36:23;;;;;;;;;;;20.90;60.30;;;;;;5058236;28;19919;-77
2022/06/23 00:38:49;;;;;;;;;;;20.90;60.30;;;;;;5067252;28;19971;-74
2022/06/23 00:41:21;;;;;;;;;;;20.80;60.20;;;;;;5064119;28;20370;-74
2022/06/23 00:43:48;;;;;;;;;;;20.80;60.40;;;;;;5060965;28;19913;-74
2022/06/23 00:46:26;;;;;;;;;;;20.70;60.20;;;;;;5060568;28;19961;-74
2022/06/23 00:49:18;;;;;;;;;;;20.70;60.30;;;;;;5059457;28;20632;-74
2022/06/23 00:51:47;;;;;;;;;;;20.70;60.50;;;;;;5045544;28;19909;-74
2022/06/23 00:54:16;;;;;;;;;;;20.70;60.60;;;;;;5052375;28;19913;-74
2022/06/23 00:56:55;;;;;;;;;;;20.60;60.60;;;;;;5067016;28;19936;-74
2022/06/23 00:59:23;;;;;;;;;;;20.60;60.60;;;;;;5047317;28;19909;-74
2022/06/23 01:02:04;;;;;;;;;;;20.60;60.70;;;;;;5050550;28;20247;-74
2022/06/23 01:04:35;;;;;;;;;;;20.50;60.70;;;;;;5059426;28;19962;-74
2022/06/23 01:07:06;;;;;;;;;;;20.50;60.80;;;;;;5061840;28;19973;-74
2022/06/23 01:09:45;;;;;;;;;;;20.40;60.90;;;;;;5065450;28;19915;-74
2022/06/23 01:12:26;;;;;;;;;;;20.50;61.00;;;;;;5070984;28;20017;-74
2022/06/23 01:15:21;;;;;;;;;;;20.40;61.00;;;;;;5061974;28;20315;-74
2022/06/23 01:17:55;;;;;;;;;;;20.40;60.90;;;;;;5050049;28;20063;-74
2022/06/23 01:20:21;;;;;;;;;;;20.30;61.10;;;;;;5060783;28;20463;-74
2022/06/23 01:22:46;;;;;;;;;;;20.40;61.20;;;;;;5065927;28;19913;-74
2022/06/23 01:25:18;;;;;;;;;;;20.30;61.20;;;;;;5051530;28;19908;-74
2022/06/23 01:27:49;;;;;;;;;;;20.30;61.10;;;;;;5057719;28;19934;-74
2022/06/23 01:30:15;;;;;;;;;;;20.30;61.40;;;;;;5064136;28;19961;-74
2022/06/23 01:32:43;;;;;;;;;;;20.30;61.40;;;;;;5052609;28;20347;-74
2022/06/23 01:35:15;;;;;;;;;;;20.20;61.40;;;;;;5067210;28;19952;-74
2022/06/23 01:37:41;;;;;;;;;;;20.20;61.60;;;;;;5070387;28;19916;-74
2022/06/23 01:40:09;;;;;;;;;;;20.10;61.30;;;;;;5070439;28;19969;-74
2022/06/23 01:42:39;;;;;;;;;;;20.10;61.60;;;;;;5066988;28;19923;-74
2022/06/23 01:45:04;;;;;;;;;;;20.10;61.60;;;;;;5049993;28;19924;-74
2022/06/23 01:47:35;;;;;;;;;;;20.10;61.60;;;;;;5060590;28;19967;-74
2022/06/23 01:50:09;;;;;;;;;;;20.10;61.70;;;;;;5068840;28;19916;-74
2022/06/23 01:52:35;;;;;;;;;;;20.00;61.90;;;;;;5058712;28;19913;-74
2022/06/23 01:55:06;;;;;;;;;;;20.00;61.80;;;;;;5056191;28;19924;-77
2022/06/23 01:57:35;;;;;;;;;;;20.00;62.10;;;;;;5054880;28;20369;-76
2022/06/23 02:00:13;;;;;;;;;;;20.00;61.80;;;;;;5048780;28;20003;-76
2022/06/23 02:02:59;;;;;;;;;;;19.90;62.00;;;;;;5061204;28;20493;-76
2022/06/23 02:05:39;;;;;;;;;;;19.90;61.80;;;;;;5062566;28;19912;-77
2022/06/23 02:08:23;;;;;;;;;;;19.90;61.90;;;;;;5063019;28;20000;-76
2022/06/23 02:10:51;;;;;;;;;;;19.80;62.00;;;;;;5060627;28;19913;-76
2022/06/23 02:13:41;;;;;;;;;;;19.80;62.10;;;;;;5048223;28;19913;-77
2022/06/23 02:16:15;;;;;;;;;;;19.80;62.40;;;;;;5061098;28;19912;-76
2022/06/23 02:19:00;;;;;;;;;;;19.80;62.30;;;;;;5046236;28;19921;-76
2022/06/23 02:21:31;;;;;;;;;;;19.80;62.40;;;;;;5047210;28;19909;-77
2022/06/23 02:23:57;;;;;;;;;;;19.70;62.20;;;;;;5050556;28;20023;-76
2022/06/23 02:26:34;;;;;;;;;;;19.70;62.20;;;;;;5058342;28;20513;-76
2022/06/23 02:29:06;;;;;;;;;;;19.70;62.20;;;;;;5068212;28;19958;-74
2022/06/23 02:31:51;;;;;;;;;;;19.60;62.40;;;;;;5067219;28;19919;-74
2022/06/23 02:34:22;;;;;;;;;;;19.60;62.70;;;;;;5060256;28;20011;-74
2022/06/23 02:36:56;;;;;;;;;;;19.60;62.60;;;;;;5069205;28;19991;-74
2022/06/23 02:39:42;;;;;;;;;;;19.60;62.80;;;;;;5078144;28;19912;-74
2022/06/23 02:42:18;;;;;;;;;;;19.50;62.70;;;;;;5034193;28;19965;-74
2022/06/23 02:44:53;;;;;;;;;;;19.50;62.70;;;;;;5067788;28;19908;-74
2022/06/23 02:47:18;;;;;;;;;;;19.50;62.70;;;;;;5059992;28;20421;-74
2022/06/23 02:49:54;;;;;;;;;;;19.50;62.70;;;;;;5049004;28;19913;-74
2022/06/23 02:52:20;;;;;;;;;;;19.50;63.00;;;;;;5062850;28;19913;-74
2022/06/23 02:54:48;;;;;;;;;;;19.40;63.30;;;;;;5054580;28;19920;-74
2022/06/23 02:57:14;;;;;;;;;;;19.40;62.80;;;;;;5061284;28;19913;-74
2022/06/23 02:59:42;;;;;;;;;;;19.40;63.10;;;;;;5053391;28;20234;-74
2022/06/23 03:02:14;;;;;;;;;;;19.40;63.00;;;;;;5048809;28;19931;-74
2022/06/23 03:04:44;;;;;;;;;;;19.30;63.10;;;;;;5064470;28;19919;-74
2022/06/23 03:07:13;;;;;;;;;;;19.40;63.20;;;;;;5061504;28;19917;-74
2022/06/23 03:09:41;;;;;;;;;;;19.30;63.00;;;;;;5061267;28;19912;-74
2022/06/23 03:12:13;;;;;;;;;;;19.30;63.10;;;;;;5063639;28;19913;-74
2022/06/23 03:14:38;;;;;;;;;;;19.30;62.90;;;;;;5058514;28;19913;-74
2022/06/23 03:17:24;;;;;;;;;;;19.30;63.20;;;;;;5054693;28;20406;-74
2022/06/23 03:20:13;;;;;;;;;;;19.20;63.40;;;;;;5053587;28;19936;-74
2022/06/23 03:22:55;;;;;;;;;;;19.20;63.50;;;;;;5043980;28;19919;-74
2022/06/23 03:25:26;;;;;;;;;;;19.20;63.80;;;;;;5064993;28;20375;-74
2022/06/23 03:28:03;;;;;;;;;;;19.10;63.50;;;;;;5056430;28;20369;-74
2022/06/23 03:30:35;;;;;;;;;;;19.20;63.50;;;;;;5061396;28;19909;-74
2022/06/23 03:33:20;;;;;;;;;;;19.20;63.50;;;;;;5060410;28;20026;-74
2022/06/23 03:35:52;;;;;;;;;;;19.10;63.70;;;;;;5063615;28;19913;-74
2022/06/23 03:41:36;;;;;;;;;;;19.10;63.80;;;;;;5060653;28;19915;-74
2022/06/23 03:43:57;;;;;;;;;;;19.10;63.70;;;;;;5060455;28;19986;-74
2022/06/23 03:46:27;;;;;;;;;;;19.10;63.90;;;;;;5059027;28;20023;-74
2022/06/23 03:48:53;;;;;;;;;;;19.10;64.40;;;;;;5065772;28;20009;-74
2022/06/23 03:51:20;;;;;;;;;;;19.00;64.00;;;;;;5052856;28;19956;-74
2022/06/23 03:53:52;;;;;;;;;;;19.00;64.00;;;;;;5052312;28;19912;-74
2022/06/23 03:56:20;;;;;;;;;;;19.00;64.10;;;;;;5061037;28;19913;-74
2022/06/23 03:58:55;;;;;;;;;;;19.00;64.10;;;;;;5050420;28;20285;-77
2022/06/23 04:01:21;;;;;;;;;;;19.00;64.20;;;;;;5051881;28;19912;-77
2022/06/23 04:03:54;;;;;;;;;;;18.90;64.30;;;;;;5059690;28;19908;-77
2022/06/23 04:06:39;;;;;;;;;;;18.90;64.60;;;;;;5066297;28;19968;-74
2022/06/23 04:09:06;;;;;;;;;;;18.90;64.20;;;;;;5053800;28;20424;-74
2022/06/23 04:11:44;;;;;;;;;;;18.90;64.30;;;;;;5061861;28;20130;-74
2022/06/23 04:14:11;;;;;;;;;;;18.90;64.40;;;;;;5060411;28;20541;-74
2022/06/23 04:16:37;;;;;;;;;;;18.90;64.70;;;;;;5059258;28;19913;-74
2022/06/23 04:19:08;;;;;;;;;;;18.80;64.30;;;;;;5059653;28;20021;-74
2022/06/23 04:21:34;;;;;;;;;;;18.90;64.30;;;;;;5060289;28;20412;-74
2022/06/23 04:24:02;;;;;;;;;;;18.90;64.60;;;;;;5047048;28;19950;-74
2022/06/23 04:26:27;;;;;;;;;;;18.90;64.70;;;;;;5046489;28;20415;-74
2022/06/23 04:28:57;;;;;;;;;;;18.80;64.80;;;;;;5052936;28;19920;-74
2022/06/23 04:31:33;;;;;;;;;;;18.80;64.90;;;;;;5052897;28;19917;-74
2022/06/23 04:34:00;;;;;;;;;;;18.80;65.00;;;;;;5061041;28;20560;-74
2022/06/23 04:36:27;;;;;;;;;;;18.80;64.90;;;;;;5056231;28;19916;-74
2022/06/23 04:39:02;;;;;;;;;;;18.80;64.70;;;;;;5065662;28;19916;-74
2022/06/23 04:41:27;;;;;;;;;;;18.80;65.00;;;;;;5061850;28;19948;-77
2022/06/23 04:44:02;;;;;;;;;;;18.80;64.90;;;;;;5062240;28;20328;-77
2022/06/23 04:46:40;;;;;;;;;;;18.80;65.30;;;;;;5060089;28;20253;-74
2022/06/23 04:49:22;;;;;;;;;;;18.80;65.00;;;;;;5059954;28;19959;-74
2022/06/23 04:52:14;;;;;;;;;;;18.80;65.20;;;;;;5059552;28;19966;-74
2022/06/23 04:55:04;;;;;;;;;;;18.80;65.30;;;;;;5059105;28;19923;-74
2022/06/23 04:57:41;;;;;;;;;;;18.80;65.20;;;;;;5051630;28;19919;-74
2022/06/23 05:00:18;;;;;;;;;;;18.80;65.30;;;;;;5059159;28;19908;-74
2022/06/23 05:02:49;;;;;;;;;;;18.70;65.30;;;;;;5066687;28;20661;-74
2022/06/23 05:05:19;;;;;;;;;;;18.70;65.20;;;;;;5053049;28;19924;-74
2022/06/23 05:07:48;;;;;;;;;;;18.80;65.40;;;;;;5060704;28;19923;-74
2022/06/23 05:10:17;;;;;;;;;;;18.70;65.30;;;;;;5064974;28;20246;-74
2022/06/23 05:12:47;;;;;;;;;;;18.70;65.50;;;;;;5052440;28;19917;-74
2022/06/23 05:15:16;;;;;;;;;;;18.70;65.60;;;;;;5047188;28;20004;-74
2022/06/23 05:17:43;;;;;;;;;;;18.70;65.50;;;;;;5046795;28;20374;-74
2022/06/23 05:20:18;;;;;;;;;;;18.70;65.50;;;;;;5057142;28;20403;-74
2022/06/23 05:22:45;;;;;;;;;;;18.70;65.50;;;;;;5060347;28;19963;-74
2022/06/23 05:25:20;;;;;;;;;;;18.70;65.70;;;;;;5053235;28;20003;-74
2022/06/23 05:27:47;;;;;;;;;;;18.70;65.50;;;;;;5056291;28;19948;-74
2022/06/23 05:30:31;;;;;;;;;;;18.70;65.60;;;;;;5064288;28;20281;-74
2022/06/23 05:32:59;;;;;;;;;;;18.80;65.70;;;;;;5048382;28;19995;-73
2022/06/23 05:35:31;;;;;;;;;;;18.80;65.80;;;;;;5053417;28;19917;-73
2022/06/23 05:38:01;;;;;;;;;;;18.80;65.80;;;;;;5067060;28;20040;-74
2022/06/23 05:40:35;;;;;;;;;;;18.80;65.80;;;;;;5067349;28;20559;-74
2022/06/23 05:43:02;;;;;;;;;;;18.80;65.80;;;;;;5060399;28;19919;-74
2022/06/23 05:45:31;;;;;;;;;;;18.80;66.00;;;;;;5054067;28;19925;-74
2022/06/23 05:47:57;;;;;;;;;;;18.80;66.00;;;;;;5066710;28;19924;-74
2022/06/23 05:50:43;;;;;;;;;;;18.90;65.90;;;;;;5067158;28;20016;-74
2022/06/23 05:53:23;;;;;;;;;;;18.80;65.90;;;;;;5049790;28;19971;-74
2022/06/23 05:55:53;;;;;;;;;;;18.80;65.80;;;;;;5065949;28;19908;-74
2022/06/23 05:58:32;;;;;;;;;;;18.80;65.80;;;;;;5062384;28;19908;-74
2022/06/23 06:00:58;;;;;;;;;;;18.80;66.00;;;;;;5053699;28;19939;-77
2022/06/23 06:03:38;;;;;;;;;;;18.90;66.60;;;;;;5068300;28;20732;-77
2022/06/23 06:06:04;;;;;;;;;;;18.90;66.00;;;;;;5061629;28;19913;-77
2022/06/23 06:09:35;;;;;;;;;;;18.90;66.00;;;;;;5055310;28;19948;-77
2022/06/23 06:11:23;;;;;;;;;;;18.90;65.90;;;;;;5061132;28;20000;-77
2022/06/23 06:13:50;;;;;;;;;;;18.90;65.90;;;;;;5064578;28;19985;-77
2022/06/23 06:16:15;;;;;;;;;;;18.90;65.70;;;;;;5052728;28;20075;-75
2022/06/23 06:18:42;;;;;;;;;;;18.90;65.70;;;;;;5067603;28;19917;-75
2022/06/23 06:21:09;;;;;;;;;;;19.00;65.90;;;;;;5063580;28;19967;-75
2022/06/23 06:23:57;;;;;;;;;;;19.00;65.60;;;;;;5066575;28;19919;-75
2022/06/23 06:26:26;;;;;;;;;;;19.00;65.60;;;;;;5068957;28;19927;-74
2022/06/23 06:28:55;;;;;;;;;;;19.00;65.70;;;;;;5062326;28;19912;-74
2022/06/23 06:31:33;;;;;;;;;;;19.00;65.40;;;;;;5057382;28;19912;-74
2022/06/23 06:34:06;;;;;;;;;;;19.00;65.40;;;;;;5057260;28;19919;-74
2022/06/23 06:36:36;;;;;;;;;;;19.00;65.30;;;;;;5065536;28;19915;-74
2022/06/23 06:39:14;;;;;;;;;;;19.10;65.20;;;;;;5065391;28;20053;-74
2022/06/23 06:41:41;;;;;;;;;;;19.10;65.20;;;;;;5067238;28;19913;-74
2022/06/23 06:44:07;;;;;;;;;;;19.10;65.10;;;;;;5059692;28;19916;-74
2022/06/23 06:46:34;;;;;;;;;;;19.20;65.00;;;;;;5055846;28;19920;-74
2022/06/23 06:49:00;;;;;;;;;;;19.20;65.00;;;;;;5054220;28;19983;-74
2022/06/23 06:51:26;;;;;;;;;;;19.20;64.90;;;;;;5056885;28;19912;-74
2022/06/23 06:53:57;;;;;;;;;;;19.20;64.90;;;;;;5058747;28;19992;-74
2022/06/23 06:56:23;;;;;;;;;;;19.20;64.80;;;;;;5062886;28;19968;-74
2022/06/23 06:59:01;;;;;;;;;;;19.30;64.80;;;;;;5068416;28;19971;-74
2022/06/23 07:01:27;;;;;;;;;;;19.30;64.60;;;;;;5057143;28;20019;-74
2022/06/23 07:03:54;;;;;;;;;;;19.30;64.80;;;;;;5050009;28;19920;-74
2022/06/23 07:06:19;;;;;;;;;;;19.30;64.80;;;;;;5054909;28;19962;-74
2022/06/23 07:08:44;;;;;;;;;;;19.40;64.70;;;;;;5048089;28;19912;-77
2022/06/23 07:11:18;;;;;;;;;;;19.40;64.60;;;;;;5053895;28;19910;-77
2022/06/23 07:13:46;;;;;;;;;;;19.40;64.60;;;;;;5059777;28;19916;-77
2022/06/23 07:16:17;;;;;;;;;;;19.40;64.50;;;;;;5051330;28;19909;-77
2022/06/23 07:18:46;;;;;;;;;;;19.50;64.40;;;;;;5056093;28;20000;-77
2022/06/23 07:21:17;;;;;;;;;;;19.50;64.90;;;;;;5062899;28;19966;-77
2022/06/23 07:23:45;;;;;;;;;;;19.50;64.30;;;;;;5056740;28;19909;-77
2022/06/23 07:26:17;;;;;;;;;;;19.50;64.30;;;;;;5047679;28;19920;-77
2022/06/23 07:28:48;;;;;;;;;;;19.60;64.20;;;;;;5058290;28;19917;-77
2022/06/23 07:31:17;;;;;;;;;;;19.60;64.20;;;;;;5049096;28;20432;-77
2022/06/23 07:33:51;;;;;;;;;;;19.70;64.40;;;;;;5054861;28;19995;-75
2022/06/23 07:36:21;;;;;;;;;;;19.70;64.10;;;;;;5069446;28;19912;-75
2022/06/23 07:38:58;;;;;;;;;;;19.70;64.10;;;;;;5063145;28;20563;-75
2022/06/23 07:41:30;;;;;;;;;;;19.80;64.20;;;;;;5062919;28;20484;-75
2022/06/23 07:43:55;;;;;;;;;;;19.80;64.00;;;;;;5069693;28;19908;-75
2022/06/23 07:46:21;;;;;;;;;;;19.80;64.20;;;;;;5055285;28;20270;-75
2022/06/23 07:48:46;;;;;;;;;;;19.90;64.20;;;;;;5063388;28;20558;-75
2022/06/23 07:51:12;;;;;;;;;;;19.90;64.10;;;;;;5056299;28;19909;-74
2022/06/23 07:53:44;;;;;;;;;;;20.00;64.00;;;;;;5063095;28;20463;-74
2022/06/23 07:56:17;;;;;;;;;;;20.10;64.00;;;;;;5069414;28;19920;-74
2022/06/23 07:58:45;;;;;;;;;;;20.10;64.30;;;;;;5054602;28;19913;-74
2022/06/23 08:01:14;;;;;;;;;;;20.10;64.30;;;;;;5080410;28;19920;-74
2022/06/23 08:04:12;;;;;;;;;;;20.20;64.30;;;;;;5061712;28;19990;-74
2022/06/23 08:06:38;;;;;;;;;;;20.20;64.20;;;;;;5055580;28;19917;-74
2022/06/23 08:09:18;;;;;;;;;;;20.30;64.10;;;;;;5057333;28;20422;-74
2022/06/23 08:14:30;;;;;;;;;;;20.40;64.40;;;;;;5069369;28;20041;-74
2022/06/23 08:16:55;;;;;;;;;;;20.50;64.30;;;;;;5067288;28;20668;-74
2022/06/23 08:19:29;;;;;;;;;;;20.50;64.10;;;;;;5055934;28;19913;-74
2022/06/23 08:22:04;;;;;;;;;;;20.60;63.70;;;;;;5063638;28;20257;-74
2022/06/23 08:24:32;;;;;;;;;;;20.60;64.30;;;;;;5065712;28;19913;-74
2022/06/23 08:27:03;;;;;;;;;;;20.70;63.60;;;;;;5065427;28;19917;-74
2022/06/23 08:29:32;;;;;;;;;;;20.80;64.40;;;;;;5067992;28;19962;-77
2022/06/23 08:31:59;;;;;;;;;;;20.80;64.00;;;;;;5060385;28;20407;-77
2022/06/23 08:34:24;;;;;;;;;;;20.90;64.30;;;;;;5046886;28;19933;-77
2022/06/23 08:36:52;;;;;;;;;;;20.90;64.10;;;;;;5057685;28;19916;-77
2022/06/23 08:39:22;;;;;;;;;;;21.00;63.80;;;;;;5051568;28;19921;-77
2022/06/23 08:41:54;;;;;;;;;;;21.00;63.70;;;;;;5054062;28;19935;-78
2022/06/23 08:44:22;;;;;;;;;;;21.10;63.60;;;;;;5052584;28;20342;-78
2022/06/23 08:46:56;;;;;;;;;;;21.10;63.30;;;;;;5046799;28;19998;-78
2022/06/23 08:49:30;;;;;;;;;;;21.20;63.50;;;;;;5063411;28;20527;-77
2022/06/23 08:51:56;;;;;;;;;;;21.30;63.50;;;;;;5046014;28;19992;-77
2022/06/23 08:54:27;;;;;;;;;;;21.40;63.80;;;;;;5052346;28;20494;-77
2022/06/23 08:57:14;;;;;;;;;;;21.40;63.70;;;;;;5050955;28;19996;-77
2022/06/23 08:59:55;;;;;;;;;;;21.50;63.30;;;;;;5045192;28;19919;-77
2022/06/23 09:02:21;;;;;;;;;;;21.50;63.10;;;;;;5047956;28;20254;-77
2022/06/23 09:04:52;;;;;;;;;;;21.60;63.30;;;;;;5063833;28;20017;-77
2022/06/23 09:07:30;;;;;;;;;;;21.70;63.30;;;;;;5045952;28;19916;-77
2022/06/23 09:10:01;;;;;;;;;;;21.70;63.20;;;;;;5044484;28;19912;-77
2022/06/23 09:12:33;;;;;;;;;;;21.80;62.90;;;;;;5056104;28;19986;-77
2022/06/23 09:15:17;;;;;;;;;;;21.90;63.00;;;;;;5058719;28;20361;-77
2022/06/23 09:17:48;;;;;;;;;;;21.90;62.90;;;;;;5046141;28;20023;-77
2022/06/23 09:20:39;;;;;;;;;;;22.00;63.30;;;;;;5053633;28;20627;-77
2022/06/23 09:23:11;;;;;;;;;;;22.00;62.80;;;;;;5064246;28;19913;-77
2022/06/23 09:25:45;;;;;;;;;;;22.10;62.40;;;;;;5058601;28;19919;-78
2022/06/23 09:28:13;;;;;;;;;;;22.20;62.70;;;;;;5045379;28;19917;-78
2022/06/23 09:30:39;;;;;;;;;;;22.20;62.70;;;;;;5061348;28;19919;-77
2022/06/23 09:33:21;;;;;;;;;;;22.30;62.50;;;;;;5049540;28;19913;-77
2022/06/23 09:35:47;;;;;;;;;;;22.30;62.50;;;;;;5062192;28;20003;-77
2022/06/23 09:38:15;;;;;;;;;;;22.50;62.70;;;;;;5059573;28;20000;-77
2022/06/23 09:40:44;;;;;;;;;;;22.50;62.60;;;;;;5069121;28;19921;-76
2022/06/23 09:43:30;;;;;;;;;;;22.60;62.30;;;;;;5074306;28;19920;-76
2022/06/23 09:45:59;;;;;;;;;;;22.60;62.30;;;;;;5073901;28;20003;-76
2022/06/23 09:48:43;;;;;;;;;;;22.70;62.60;;;;;;5070403;28;20319;-76
2022/06/23 09:51:25;;;;;;;;;;;22.80;62.40;;;;;;5073230;28;19912;-76
2022/06/23 09:54:00;;;;;;;;;;;22.80;62.00;;;;;;5053784;28;19913;-76
2022/06/23 09:56:28;;;;;;;;;;;22.90;61.90;;;;;;5053036;28;19909;-76
2022/06/23 09:59:06;;;;;;;;;;;23.00;62.00;;;;;;5060021;28;19920;-76
2022/06/23 10:01:40;;;;;;;;;;;23.00;61.80;;;;;;5052081;28;19913;-76
2022/06/23 10:04:17;;;;;;;;;;;23.10;61.40;;;;;;5063203;28;19938;-77
2022/06/23 10:06:49;;;;;;;;;;;23.20;61.80;;;;;;5070664;28;19966;-77
2022/06/23 10:09:27;;;;;;;;;;;23.30;61.60;;;;;;5073045;28;19923;-77
2022/06/23 10:11:58;;;;;;;;;;;23.40;61.30;;;;;;5072753;28;19913;-77
2022/06/23 10:14:30;;;;;;;;;;;23.40;61.30;;;;;;5071192;28;19913;-77
2022/06/23 10:17:19;;;;;;;;;;;23.50;61.40;;;;;;5072014;28;19917;-77
2022/06/23 10:19:47;;;;;;;;;;;23.60;61.70;;;;;;5066875;28;19943;-77
2022/06/23 10:22:31;;;;;;;;;;;23.70;61.50;;;;;;5070482;28;19971;-77
2022/06/23 10:25:15;;;;;;;;;;;23.80;61.50;;;;;;5060099;28;20358;-77
2022/06/23 10:27:50;;;;;;;;;;;23.90;61.40;;;;;;5068201;28;20529;-77
2022/06/23 10:30:19;;;;;;;;;;;24.00;61.40;;;;;;5071241;28;19908;-77
2022/06/23 10:32:59;;;;;;;;;;;24.10;61.30;;;;;;5056252;28;19920;-77
2022/06/23 10:35:33;;;;;;;;;;;24.20;61.20;;;;;;5061609;28;20559;-78
2022/06/23 10:38:04;;;;;;;;;;;24.30;61.40;;;;;;5065651;28;19917;-78
2022/06/23 10:40:48;;;;;;;;;;;24.50;61.80;;;;;;5057395;28;19995;-78
2022/06/23 10:43:20;;;;;;;;;;;24.50;61.40;;;;;;5064794;28;19909;-78
2022/06/23 10:45:51;;;;;;;;;;;24.70;61.50;;;;;;5060029;28;19923;-78
2022/06/23 10:48:28;;;;;;;;;;;24.80;61.60;;;;;;5067697;28;20017;-78
2022/06/23 10:50:59;;;;;;;;;;;24.90;61.70;;;;;;5067914;28;19914;-78
2022/06/23 10:53:33;;;;;;;;;;;25.00;61.60;;;;;;5070432;28;19913;-79
2022/06/23 10:55:58;;;;;;;;;;;25.10;61.70;;;;;;5062761;28;20348;-78
2022/06/23 10:58:27;;;;;;;;;;;25.30;61.40;;;;;;5058873;28;19951;-79
2022/06/23 11:00:52;;;;;;;;;;;25.40;61.50;;;;;;5068215;28;19940;-79
2022/06/23 11:03:18;;;;;;;;;;;25.60;61.70;;;;;;5068381;28;20261;-79
2022/06/23 11:06:02;;;;;;;;;;;25.70;61.90;;;;;;5066249;28;20650;-78
2022/06/23 11:08:42;;;;;;;;;;;25.80;62.00;;;;;;5063543;28;19970;-78
2022/06/23 11:11:13;;;;;;;;;;;25.90;61.90;;;;;;5055503;28;19908;-78
2022/06/23 11:13:49;;;;;;;;;;;26.10;62.10;;;;;;5061512;28;19935;-78
2022/06/23 11:16:17;;;;;;;;;;;26.20;61.70;;;;;;5050776;28;19913;-78
2022/06/23 11:18:52;;;;;;;;;;;26.30;61.80;;;;;;5057574;28;19917;-78
2022/06/23 11:21:28;;;;;;;;;;;26.40;61.50;;;;;;5053876;28;19913;-78
2022/06/23 11:24:19;;;;;;;;;;;26.50;61.20;;;;;;5058750;28;19908;-78
2022/06/23 11:26:51;;;;;;;;;;;26.60;61.30;;;;;;5059608;28;19917;-79
2022/06/23 11:29:19;;;;;;;;;;;26.70;61.10;;;;;;5054662;28;19935;-79
2022/06/23 11:31:58;;;;;;;;;;;26.90;60.90;;;;;;5057026;28;19940;-79
2022/06/23 11:34:26;;;;;;;;;;;27.00;61.00;;;;;;5060707;28;20627;-79
2022/06/23 11:36:52;;;;;;;;;;;27.10;61.10;;;;;;5065300;28;19913;-77
2022/06/23 11:39:26;;;;;;;;;;;27.20;61.30;;;;;;5059065;28;19924;-78
2022/06/23 11:42:01;;;;;;;;;;;27.30;61.70;;;;;;5065659;28;19912;-78
2022/06/23 11:44:26;;;;;;;;;;;27.30;61.30;;;;;;5061246;28;19916;-77
2022/06/23 11:47:05;;;;;;;;;;;27.40;61.00;;;;;;5059783;28;19977;-76
2022/06/23 11:49:40;;;;;;;;;;;27.50;61.00;;;;;;5053156;28;19925;-76
2022/06/23 11:52:17;;;;;;;;;;;27.60;60.90;;;;;;5045743;28;19981;-77
2022/06/23 11:54:52;;;;;;;;;;;27.70;60.80;;;;;;5058714;28;19913;-77
2022/06/23 11:57:43;;;;;;;;;;;27.80;60.40;;;;;;5064763;28;19912;-77
2022/06/23 12:00:11;;;;;;;;;;;27.80;60.60;;;;;;5064603;28;20489;-77
2022/06/23 12:02:49;;;;;;;;;;;27.90;60.00;;;;;;5052120;28;20007;-77
2022/06/23 12:05:18;;;;;;;;;;;28.00;60.40;;;;;;5064509;28;20003;-77
2022/06/23 12:07:46;;;;;;;;;;;28.10;60.50;;;;;;5058896;28;19924;-77
2022/06/23 12:10:20;;;;;;;;;;;28.20;60.50;;;;;;5045568;28;20411;-77
2022/06/23 12:12:47;;;;;;;;;;;28.20;60.70;;;;;;5045473;28;19927;-77
2022/06/23 12:15:14;;;;;;;;;;;28.30;60.80;;;;;;5045457;28;19913;-77
2022/06/23 12:17:43;;;;;;;;;;;28.40;60.60;;;;;;5051545;28;19913;-77
2022/06/23 12:20:11;;;;;;;;;;;28.50;60.70;;;;;;5051197;28;20136;-77
2022/06/23 12:22:49;;;;;;;;;;;28.50;60.60;;;;;;5045477;28;19932;-77
2022/06/23 12:25:17;;;;;;;;;;;28.60;60.60;;;;;;5060050;28;20570;-77
2022/06/23 12:27:51;;;;;;;;;;;28.70;60.80;;;;;;5064196;28;19917;-78
2022/06/23 12:30:18;;;;;;;;;;;28.70;60.90;;;;;;5063059;28;19919;-77
2022/06/23 12:32:48;;;;;;;;;;;28.80;60.90;;;;;;5055385;28;20015;-77
2022/06/23 12:35:17;;;;;;;;;;;28.90;61.00;;;;;;5055289;28;19912;-77
2022/06/23 12:37:42;;;;;;;;;;;28.90;61.10;;;;;;5063038;28;19917;-78
2022/06/23 12:40:20;;;;;;;;;;;29.00;61.10;;;;;;5053298;28;19912;-79
2022/06/23 12:42:50;;;;;;;;;;;29.00;60.80;;;;;;5045678;28;19952;-79
2022/06/23 12:45:15;;;;;;;;;;;29.10;60.70;;;;;;5045849;28;19925;-79
2022/06/23 12:47:56;;;;;;;;;;;29.20;60.00;;;;;;5061505;28;20669;-79
2022/06/23 12:50:21;;;;;;;;;;;29.30;60.60;;;;;;5051914;28;19928;-79
2022/06/23 12:53:06;;;;;;;;;;;29.30;60.50;;;;;;5055796;28;19913;-79
2022/06/23 12:55:51;;;;;;;;;;;29.40;60.30;;;;;;5065157;28;19927;-79
2022/06/23 12:58:17;;;;;;;;;;;29.40;60.00;;;;;;5058121;28;19920;-79
2022/06/23 13:00:42;;;;;;;;;;;29.50;60.10;;;;;;5063773;28;20448;-79
2022/06/23 13:03:28;;;;;;;;;;;29.60;60.00;;;;;;5058074;28;19920;-78
2022/06/23 13:06:00;;;;;;;;;;;29.70;60.00;;;;;;5052419;28;19912;-78
2022/06/23 13:08:29;;;;;;;;;;;29.70;60.00;;;;;;5056302;28;20007;-78
2022/06/23 13:11:02;;;;;;;;;;;29.80;60.10;;;;;;5053640;28;19964;-78
2022/06/23 13:13:49;;;;;;;;;;;29.90;60.00;;;;;;5053098;28;19919;-79
2022/06/23 13:16:14;;;;;;;;;;;29.90;59.90;;;;;;5067119;28;19917;-80
2022/06/23 13:18:47;;;;;;;;;;;30.00;60.10;;;;;;5063665;28;19990;-79
2022/06/23 13:21:12;;;;;;;;;;;30.00;60.00;;;;;;5062504;28;20542;-79
2022/06/23 13:23:57;;;;;;;;;;;30.20;55.70;;;;;;5062659;28;19974;-79
2022/06/23 13:26:25;;;;;;;;;;;30.20;56.90;;;;;;5065491;28;19963;-80
2022/06/23 13:28:59;;;;;;;;;;;30.20;58.20;;;;;;5064209;28;19949;-79
2022/06/23 13:31:27;;;;;;;;;;;30.30;57.30;;;;;;5064093;28;20015;-79
2022/06/23 13:33:56;;;;;;;;;;;30.50;57.00;;;;;;5071768;28;20062;-79
2022/06/23 13:36:42;;;;;;;;;;;30.50;56.70;;;;;;5061509;28;20091;-80
2022/06/23 13:39:27;;;;;;;;;;;30.60;56.00;;;;;;5040665;28;20862;-79
2022/06/23 13:42:01;;;;;;;;;;;30.60;56.40;;;;;;5059777;28;19959;-80
2022/06/23 13:44:31;;;;;;;;;;;30.60;56.00;;;;;;5065228;28;20317;-74
2022/06/23 13:47:00;;;;;;;;;;;30.70;55.50;;;;;;5047129;28;19947;-76
2022/06/23 13:49:42;;;;;;;;;;;30.80;54.50;;;;;;5058947;28;19912;-76
2022/06/23 13:52:16;;;;;;;;;;;30.90;55.30;;;;;;5066261;28;19944;-76
2022/06/23 13:54:47;;;;;;;;;;;31.00;55.40;;;;;;5065804;28;19923;-76
2022/06/23 13:57:32;;;;;;;;;;;31.10;54.50;;;;;;5061835;28;19916;-76
2022/06/23 14:00:00;;;;;;;;;;;31.10;54.60;;;;;;5063463;28;19997;-79
2022/06/23 14:02:32;;;;;;;;;;;31.20;55.00;;;;;;5053819;28;20376;-79
2022/06/23 14:05:04;;;;;;;;;;;31.30;55.10;;;;;;5078404;28;19916;-78
2022/06/23 14:07:40;;;;;;;;;;;31.30;54.50;;;;;;5060945;28;20426;-79
2022/06/23 14:10:08;;;;;;;;;;;31.40;55.00;;;;;;5047630;28;20334;-78
2022/06/23 14:12:50;;;;;;;;;;;31.50;54.60;;;;;;5065932;28;19966;-79
2022/06/23 14:15:27;;;;;;;;;;;31.50;55.30;;;;;;5067053;28;19916;-78
2022/06/23 14:17:55;;;;;;;;;;;31.50;55.20;;;;;;5051657;28;19974;-76
2022/06/23 14:20:39;;;;;;;;;;;31.50;54.30;;;;;;5047333;28;20103;-76
2022/06/23 14:23:11;;;;;;;;;;;31.60;54.40;;;;;;5047577;28;20775;-76
2022/06/23 14:25:39;;;;;;;;;;;31.60;53.70;;;;;;5047283;28;19913;-76
2022/06/23 14:28:14;;;;;;;;;;;31.80;53.90;;;;;;5046652;28;19924;-76
2022/06/23 14:30:40;;;;;;;;;;;31.80;52.60;;;;;;5051555;28;20652;-76
2022/06/23 14:33:26;;;;;;;;;;;31.80;52.10;;;;;;5063345;28;19916;-76
2022/06/23 14:35:51;;;;;;;;;;;31.90;52.80;;;;;;5057518;28;19917;-72
2022/06/23 14:38:20;;;;;;;;;;;32.00;52.80;;;;;;5065009;28;20474;-70
2022/06/23 14:40:54;;;;;;;;;;;32.10;52.90;;;;;;5049736;28;19915;-70
2022/06/23 14:43:38;;;;;;;;;;;32.20;52.30;;;;;;5064868;28;20024;-72
2022/06/23 14:46:09;;;;;;;;;;;32.30;52.40;;;;;;5065027;28;19920;-71
2022/06/23 14:48:48;;;;;;;;;;;32.40;52.20;;;;;;5058398;28;19924;-72
2022/06/23 14:51:19;;;;;;;;;;;32.60;52.40;;;;;;5065384;28;19913;-71
2022/06/23 14:53:49;;;;;;;;;;;32.60;52.10;;;;;;5063257;28;19934;-70